Enigma, Georgia
Current Conditions -  °F | °C
As of 5:10 AM on Friday 31 Oct 2014 (Local Time) from KTMA Reporting Station
Clear Clear  
Wind Chill: 50°   Ceiling: Unl
Heat Index: 50°   Visibility: 10mi
Dew Point: 44°   Wind: 5mph
Humidity: 77%   Direction: 330°NNW
Pressure: 29.91"   Gusts: NA
Location:  31.41°N, 83.33°W
Report Text: KTMA 310910Z AUTO 33004KT 10SM CLR 10/06 A2991 RMK AO2 T01020064
Loading
Personal Weather Stations






























Interactive Weather Map
Tropical Storm Tracking
New forecast layout! Learn more

10-Day Weather Forecast

Advertisements
Track Severe Weather on mobile